Hardwood, Louisiana
Current Conditions -  °F | °C
As of 1:35 AM on Wednesday 26 Nov 2014 (Local Time) from KHZR Reporting Station
Scattered Clouds Scattered Clouds  
Wind Chill:   Ceiling: Unl
Heat Index:   Visibility: 10mi
Dew Point:   Wind: 0mph
Humidity: 96%   Direction: NA
Pressure: 30.21"   Gusts: NA
Location:  30.8804°N, 91.4243°W
Report Text: KHZR 260735Z AUTO 00000KT 10SM SCT002 01/01 A3021 RMK AO2 T00100005
Loading
Personal Weather Stations






























Interactive Weather Map New forecast layout! Learn more

10-Day Weather Forecast

Advertisements
Track Severe Weather on mobile